sensor_id;sensor_type;location;lat;lon;timestamp;temperature;humidity
23207;DHT22;11773;52.570;13.052;2022-08-02T00:00:46;21.80;99.90
23207;DHT22;11773;52.570;13.052;2022-08-02T00:03:15;21.60;99.90
23207;DHT22;11773;52.570;13.052;2022-08-02T00:05:45;21.60;99.90
23207;DHT22;11773;52.570;13.052;2022-08-02T00:08:16;21.60;99.90
23207;DHT22;11773;52.570;13.052;2022-08-02T00:10:46;21.60;99.90
23207;DHT22;11773;52.570;13.052;2022-08-02T00:13:16;21.50;99.90
23207;DHT22;11773;52.570;13.052;2022-08-02T00:15:45;21.70;99.90
23207;DHT22;11773;52.570;13.052;2022-08-02T00:18:14;21.70;99.90
23207;DHT22;11773;52.570;13.052;2022-08-02T00:20:44;21.80;99.90
23207;DHT22;11773;52.570;13.052;2022-08-02T00:23:14;21.50;99.90
23207;DHT22;11773;52.570;13.052;2022-08-02T00:25:43;21.60;99.90
23207;DHT22;11773;52.570;13.052;2022-08-02T00:28:15;21.60;99.90
23207;DHT22;11773;52.570;13.052;2022-08-02T00:30:46;21.80;99.90
23207;DHT22;11773;52.570;13.052;2022-08-02T00:33:16;21.80;99.90
23207;DHT22;11773;52.570;13.052;2022-08-02T00:35:47;21.80;99.90
23207;DHT22;11773;52.570;13.052;2022-08-02T00:38:17;21.70;99.90
23207;DHT22;11773;52.570;13.052;2022-08-02T00:40:53;21.70;99.90
23207;DHT22;11773;52.570;13.052;2022-08-02T00:43:21;21.60;99.90
23207;DHT22;11773;52.570;13.052;2022-08-02T00:45:50;21.80;99.90
23207;DHT22;11773;52.570;13.052;2022-08-02T00:48:21;21.70;99.90
23207;DHT22;11773;52.570;13.052;2022-08-02T00:50:51;21.70;99.90
23207;DHT22;11773;52.570;13.052;2022-08-02T00:53:20;21.70;99.90
23207;DHT22;11773;52.570;13.052;2022-08-02T00:55:50;21.70;99.90
23207;DHT22;11773;52.570;13.052;2022-08-02T00:58:20;21.80;99.90
23207;DHT22;11773;52.570;13.052;2022-08-02T01:00:50;21.70;99.90
23207;DHT22;11773;52.570;13.052;2022-08-02T01:03:19;21.70;99.90
23207;DHT22;11773;52.570;13.052;2022-08-02T01:05:49;21.70;99.90
23207;DHT22;11773;52.570;13.052;2022-08-02T01:08:20;21.70;99.90
23207;DHT22;11773;52.570;13.052;2022-08-02T01:10:51;21.60;99.90
23207;DHT22;11773;52.570;13.052;2022-08-02T01:13:21;21.60;99.90
23207;DHT22;11773;52.570;13.052;2022-08-02T01:16:08;21.50;99.90
23207;DHT22;11773;52.570;13.052;2022-08-02T01:18:39;21.50;99.90
23207;DHT22;11773;52.570;13.052;2022-08-02T01:21:40;21.40;99.90
23207;DHT22;11773;52.570;13.052;2022-08-02T01:24:45;21.50;99.90
23207;DHT22;11773;52.570;13.052;2022-08-02T01:30:21;21.50;99.90
23207;DHT22;11773;52.570;13.052;2022-08-02T01:32:53;21.50;99.90
23207;DHT22;11773;52.570;13.052;2022-08-02T01:35:34;21.30;99.90
23207;DHT22;11773;52.570;13.052;2022-08-02T01:38:22;21.30;99.90
23207;DHT22;11773;52.570;13.052;2022-08-02T01:40:44;21.40;99.90
23207;DHT22;11773;52.570;13.052;2022-08-02T01:43:16;21.30;99.90
23207;DHT22;11773;52.570;13.052;2022-08-02T01:45:50;21.30;99.90
23207;DHT22;11773;52.570;13.052;2022-08-02T01:48:21;21.30;99.90
23207;DHT22;11773;52.570;13.052;2022-08-02T01:50:53;21.30;99.90
23207;DHT22;11773;52.570;13.052;2022-08-02T01:53:24;21.50;99.90
23207;DHT22;11773;52.570;13.052;2022-08-02T01:55:58;21.30;99.90
23207;DHT22;11773;52.570;13.052;2022-08-02T01:58:31;21.30;99.90
23207;DHT22;11773;52.570;13.052;2022-08-02T02:01:05;21.30;99.90
23207;DHT22;11773;52.570;13.052;2022-08-02T02:03:39;21.20;99.90
23207;DHT22;11773;52.570;13.052;2022-08-02T02:06:11;21.30;99.90
23207;DHT22;11773;52.570;13.052;2022-08-02T02:08:42;21.10;99.90
23207;DHT22;11773;52.570;13.052;2022-08-02T02:11:12;21.10;99.90
23207;DHT22;11773;52.570;13.052;2022-08-02T02:13:44;21.20;99.90
23207;DHT22;11773;52.570;13.052;2022-08-02T02:16:18;21.10;99.90
23207;DHT22;11773;52.570;13.052;2022-08-02T02:18:49;21.10;99.90
23207;DHT22;11773;52.570;13.052;2022-08-02T02:21:21;21.10;99.90
23207;DHT22;11773;52.570;13.052;2022-08-02T02:23:50;21.00;99.90
23207;DHT22;11773;52.570;13.052;2022-08-02T02:26:20;20.90;99.90
23207;DHT22;11773;52.570;13.052;2022-08-02T02:28:53;20.80;99.90
23207;DHT22;11773;52.570;13.052;2022-08-02T02:31:26;20.80;99.90
23207;DHT22;11773;52.570;13.052;2022-08-02T02:34:22;20.70;99.90
23207;DHT22;11773;52.570;13.052;2022-08-02T02:36:58;20.80;99.90
23207;DHT22;11773;52.570;13.052;2022-08-02T02:39:31;20.70;99.90
23207;DHT22;11773;52.570;13.052;2022-08-02T02:42:03;20.70;99.90
23207;DHT22;11773;52.570;13.052;2022-08-02T02:44:37;20.60;99.90
23207;DHT22;11773;52.570;13.052;2022-08-02T02:47:09;20.70;99.90
23207;DHT22;11773;52.570;13.052;2022-08-02T02:49:42;20.60;99.90
23207;DHT22;11773;52.570;13.052;2022-08-02T02:52:16;20.70;99.90
23207;DHT22;11773;52.570;13.052;2022-08-02T02:54:48;20.70;99.90
23207;DHT22;11773;52.570;13.052;2022-08-02T02:57:20;20.60;99.90
23207;DHT22;11773;52.570;13.052;2022-08-02T02:59:50;20.50;99.90
23207;DHT22;11773;52.570;13.052;2022-08-02T03:02:21;20.50;99.90
23207;DHT22;11773;52.570;13.052;2022-08-02T03:04:51;20.40;99.90
23207;DHT22;11773;52.570;13.052;2022-08-02T03:07:25;20.30;99.90
23207;DHT22;11773;52.570;13.052;2022-08-02T03:09:55;20.30;99.90
23207;DHT22;11773;52.570;13.052;2022-08-02T03:12:24;20.30;99.90
23207;DHT22;11773;52.570;13.052;2022-08-02T03:14:58;20.40;99.90
23207;DHT22;11773;52.570;13.052;2022-08-02T03:17:44;20.40;99.90
23207;DHT22;11773;52.570;13.052;2022-08-02T03:20:18;20.40;99.90
23207;DHT22;11773;52.570;13.052;2022-08-02T03:22:49;20.40;99.90
23207;DHT22;11773;52.570;13.052;2022-08-02T03:25:19;20.30;99.90
23207;DHT22;11773;52.570;13.052;2022-08-02T03:27:48;20.30;99.90
23207;DHT22;11773;52.570;13.052;2022-08-02T03:30:18;20.30;99.90
23207;DHT22;11773;52.570;13.052;2022-08-02T03:32:49;20.20;99.90
23207;DHT22;11773;52.570;13.052;2022-08-02T03:35:19;20.30;99.90
23207;DHT22;11773;52.570;13.052;2022-08-02T03:37:53;20.20;99.90
23207;DHT22;11773;52.570;13.052;2022-08-02T03:40:26;20.10;99.90
23207;DHT22;11773;52.570;13.052;2022-08-02T03:42:57;20.20;99.90
23207;DHT22;11773;52.570;13.052;2022-08-02T03:45:29;20.10;99.90
23207;DHT22;11773;52.570;13.052;2022-08-02T03:48:00;20.10;99.90
23207;DHT22;11773;52.570;13.052;2022-08-02T03:50:35;20.20;99.90
23207;DHT22;11773;52.570;13.052;2022-08-02T03:53:07;20.10;99.90
23207;DHT22;11773;52.570;13.052;2022-08-02T03:55:39;20.20;99.90
23207;DHT22;11773;52.570;13.052;2022-08-02T03:58:15;20.20;99.90
23207;DHT22;11773;52.570;13.052;2022-08-02T04:00:51;20.20;99.90
23207;DHT22;11773;52.570;13.052;2022-08-02T04:03:22;20.10;99.90
23207;DHT22;11773;52.570;13.052;2022-08-02T04:05:52;20.00;99.90
23207;DHT22;11773;52.570;13.052;2022-08-02T04:08:23;20.00;99.90
23207;DHT22;11773;52.570;13.052;2022-08-02T04:10:55;19.90;99.90
23207;DHT22;11773;52.570;13.052;2022-08-02T04:13:42;19.90;99.90
23207;DHT22;11773;52.570;13.052;2022-08-02T04:16:17;19.90;99.90
23207;DHT22;11773;52.570;13.052;2022-08-02T04:18:55;19.80;99.90
23207;DHT22;11773;52.570;13.052;2022-08-02T04:21:38;19.80;99.90
23207;DHT22;11773;52.570;13.052;2022-08-02T04:24:05;19.60;99.90
23207;DHT22;11773;52.570;13.052;2022-08-02T04:26:37;19.70;99.90
23207;DHT22;11773;52.570;13.052;2022-08-02T04:29:13;19.60;99.90
23207;DHT22;11773;52.570;13.052;2022-08-02T04:31:45;19.50;99.90
23207;DHT22;11773;52.570;13.052;2022-08-02T04:34:15;19.40;99.90
23207;DHT22;11773;52.570;13.052;2022-08-02T04:36:46;19.40;99.90
23207;DHT22;11773;52.570;13.052;2022-08-02T04:39:16;19.40;99.90
23207;DHT22;11773;52.570;13.052;2022-08-02T04:41:47;19.50;99.90
23207;DHT22;11773;52.570;13.052;2022-08-02T04:44:18;19.40;99.90
23207;DHT22;11773;52.570;13.052;2022-08-02T04:46:48;19.40;99.90
23207;DHT22;11773;52.570;13.052;2022-08-02T04:49:18;19.50;99.90
23207;DHT22;11773;52.570;13.052;2022-08-02T04:51:48;19.40;99.90
23207;DHT22;11773;52.570;13.052;2022-08-02T04:54:17;19.40;99.90
23207;DHT22;11773;52.570;13.052;2022-08-02T04:56:47;19.30;99.90
23207;DHT22;11773;52.570;13.052;2022-08-02T04:59:16;19.40;99.90
23207;DHT22;11773;52.570;13.052;2022-08-02T05:01:46;19.30;99.90
23207;DHT22;11773;52.570;13.052;2022-08-02T05:04:16;19.30;99.90
23207;DHT22;11773;52.570;13.052;2022-08-02T05:06:45;19.30;99.90
23207;DHT22;11773;52.570;13.052;2022-08-02T05:09:15;19.30;99.90
23207;DHT22;11773;52.570;13.052;2022-08-02T05:11:44;19.30;99.90
23207;DHT22;11773;52.570;13.052;2022-08-02T05:14:16;19.40;99.90
23207;DHT22;11773;52.570;13.052;2022-08-02T05:16:45;19.40;99.90
23207;DHT22;11773;52.570;13.052;2022-08-02T05:19:15;19.50;99.90
23207;DHT22;11773;52.570;13.052;2022-08-02T05:21:44;19.50;99.90
23207;DHT22;11773;52.570;13.052;2022-08-02T05:24:14;19.40;99.90
23207;DHT22;11773;52.570;13.052;2022-08-02T05:26:43;19.70;99.90
23207;DHT22;11773;52.570;13.052;2022-08-02T05:29:13;20.20;99.90
23207;DHT22;11773;52.570;13.052;2022-08-02T05:31:42;20.70;99.90
23207;DHT22;11773;52.570;13.052;2022-08-02T05:34:12;21.00;99.90
23207;DHT22;11773;52.570;13.052;2022-08-02T05:36:42;21.40;99.90
23207;DHT22;11773;52.570;13.052;2022-08-02T05:39:12;21.80;99.90
23207;DHT22;11773;52.570;13.052;2022-08-02T05:41:43;22.30;99.90
23207;DHT22;11773;52.570;13.052;2022-08-02T05:44:13;22.80;99.90
23207;DHT22;11773;52.570;13.052;2022-08-02T05:46:42;22.90;99.90
23207;DHT22;11773;52.570;13.052;2022-08-02T05:49:14;23.10;99.90
23207;DHT22;11773;52.570;13.052;2022-08-02T05:51:50;23.30;99.90
23207;DHT22;11773;52.570;13.052;2022-08-02T05:54:26;23.70;99.90
23207;DHT22;11773;52.570;13.052;2022-08-02T05:57:08;24.00;99.90
23207;DHT22;11773;52.570;13.052;2022-08-02T06:00:00;24.20;99.90
23207;DHT22;11773;52.570;13.052;2022-08-02T06:05:16;24.60;99.90
23207;DHT22;11773;52.570;13.052;2022-08-02T06:07:48;24.80;99.90
23207;DHT22;11773;52.570;13.052;2022-08-02T06:10:20;24.70;99.90
23207;DHT22;11773;52.570;13.052;2022-08-02T06:13:12;24.90;99.90
23207;DHT22;11773;52.570;13.052;2022-08-02T06:15:30;25.00;99.90
23207;DHT22;11773;52.570;13.052;2022-08-02T06:18:03;25.20;99.90
23207;DHT22;11773;52.570;13.052;2022-08-02T06:20:35;25.40;99.90
23207;DHT22;11773;52.570;13.052;2022-08-02T06:23:07;25.40;99.90
23207;DHT22;11773;52.570;13.052;2022-08-02T06:25:39;25.30;99.90
23207;DHT22;11773;52.570;13.052;2022-08-02T06:28:12;25.60;99.90
23207;DHT22;11773;52.570;13.052;2022-08-02T06:30:44;25.40;99.90
23207;DHT22;11773;52.570;13.052;2022-08-02T06:33:14;25.70;99.90
23207;DHT22;11773;52.570;13.052;2022-08-02T06:36:07;25.90;99.80
23207;DHT22;11773;52.570;13.052;2022-08-02T06:38:39;26.20;99.90
23207;DHT22;11773;52.570;13.052;2022-08-02T06:41:14;26.20;99.40
23207;DHT22;11773;52.570;13.052;2022-08-02T06:43:53;26.40;99.40
23207;DHT22;11773;52.570;13.052;2022-08-02T06:46:24;26.50;99.00
23207;DHT22;11773;52.570;13.052;2022-08-02T06:48:56;26.50;98.80
23207;DHT22;11773;52.570;13.052;2022-08-02T06:51:25;26.60;98.00
23207;DHT22;11773;52.570;13.052;2022-08-02T06:53:56;26.70;98.10
23207;DHT22;11773;52.570;13.052;2022-08-02T06:56:25;26.70;98.90
23207;DHT22;11773;52.570;13.052;2022-08-02T06:58:55;26.80;98.20
23207;DHT22;11773;52.570;13.052;2022-08-02T07:01:27;27.00;98.00
23207;DHT22;11773;52.570;13.052;2022-08-02T07:03:58;27.20;97.50
23207;DHT22;11773;52.570;13.052;2022-08-02T07:06:28;27.10;97.20
23207;DHT22;11773;52.570;13.052;2022-08-02T07:08:58;27.00;98.10
23207;DHT22;11773;52.570;13.052;2022-08-02T07:11:29;27.20;97.80
23207;DHT22;11773;52.570;13.052;2022-08-02T07:13:58;27.40;97.30
23207;DHT22;11773;52.570;13.052;2022-08-02T07:16:28;27.40;96.00
23207;DHT22;11773;52.570;13.052;2022-08-02T07:18:57;27.70;96.90
23207;DHT22;11773;52.570;13.052;2022-08-02T07:21:27;27.60;96.60
23207;DHT22;11773;52.570;13.052;2022-08-02T07:23:58;27.80;96.20
23207;DHT22;11773;52.570;13.052;2022-08-02T07:26:28;27.80;95.80
23207;DHT22;11773;52.570;13.052;2022-08-02T07:28:57;28.00;95.90
23207;DHT22;11773;52.570;13.052;2022-08-02T07:31:27;28.00;96.00
23207;DHT22;11773;52.570;13.052;2022-08-02T07:33:57;27.90;95.70
23207;DHT22;11773;52.570;13.052;2022-08-02T07:36:26;27.80;96.30
23207;DHT22;11773;52.570;13.052;2022-08-02T07:38:56;27.70;96.00
23207;DHT22;11773;52.570;13.052;2022-08-02T07:41:25;28.00;95.60
23207;DHT22;11773;52.570;13.052;2022-08-02T07:43:55;28.00;95.60
23207;DHT22;11773;52.570;13.052;2022-08-02T07:46:24;28.20;95.20
23207;DHT22;11773;52.570;13.052;2022-08-02T07:48:55;28.30;95.40
23207;DHT22;11773;52.570;13.052;2022-08-02T07:51:24;28.30;94.10
23207;DHT22;11773;52.570;13.052;2022-08-02T07:53:54;28.20;94.50
23207;DHT22;11773;52.570;13.052;2022-08-02T07:56:25;28.20;94.00
23207;DHT22;11773;52.570;13.052;2022-08-02T07:58:55;28.10;94.90
23207;DHT22;11773;52.570;13.052;2022-08-02T08:01:24;28.40;95.40
23207;DHT22;11773;52.570;13.052;2022-08-02T08:03:54;28.70;94.60
23207;DHT22;11773;52.570;13.052;2022-08-02T08:06:23;28.90;94.60
23207;DHT22;11773;52.570;13.052;2022-08-02T08:08:55;28.90;94.30
23207;DHT22;11773;52.570;13.052;2022-08-02T08:11:25;29.00;94.00
23207;DHT22;11773;52.570;13.052;2022-08-02T08:13:54;29.10;94.40
23207;DHT22;11773;52.570;13.052;2022-08-02T08:16:24;28.70;93.70
23207;DHT22;11773;52.570;13.052;2022-08-02T08:18:56;28.60;94.40
23207;DHT22;11773;52.570;13.052;2022-08-02T08:21:26;28.40;94.30
23207;DHT22;11773;52.570;13.052;2022-08-02T08:23:56;28.50;94.00
23207;DHT22;11773;52.570;13.052;2022-08-02T08:26:26;28.40;93.20
23207;DHT22;11773;52.570;13.052;2022-08-02T08:28:56;27.70;93.90
23207;DHT22;11773;52.570;13.052;2022-08-02T08:31:27;28.20;94.50
23207;DHT22;11773;52.570;13.052;2022-08-02T08:33:58;28.10;94.60
23207;DHT22;11773;52.570;13.052;2022-08-02T08:36:28;28.30;94.60
23207;DHT22;11773;52.570;13.052;2022-08-02T08:38:58;27.80;94.00
23207;DHT22;11773;52.570;13.052;2022-08-02T08:41:27;28.20;94.00
23207;DHT22;11773;52.570;13.052;2022-08-02T08:43:57;28.30;93.70
23207;DHT22;11773;52.570;13.052;2022-08-02T08:46:28;28.40;93.70
23207;DHT22;11773;52.570;13.052;2022-08-02T08:49:14;28.00;94.10
23207;DHT22;11773;52.570;13.052;2022-08-02T08:51:43;28.00;94.10
23207;DHT22;11773;52.570;13.052;2022-08-02T08:54:15;27.60;93.80
23207;DHT22;11773;52.570;13.052;2022-08-02T08:56:45;27.90;94.50
23207;DHT22;11773;52.570;13.052;2022-08-02T08:59:15;28.30;94.90
23207;DHT22;11773;52.570;13.052;2022-08-02T09:01:46;27.60;93.50
23207;DHT22;11773;52.570;13.052;2022-08-02T09:04:18;27.90;94.50
23207;DHT22;11773;52.570;13.052;2022-08-02T09:06:47;28.20;94.30
23207;DHT22;11773;52.570;13.052;2022-08-02T09:09:18;28.00;94.10
23207;DHT22;11773;52.570;13.052;2022-08-02T09:11:47;27.80;93.80
23207;DHT22;11773;52.570;13.052;2022-08-02T09:14:27;27.70;94.10
23207;DHT22;11773;52.570;13.052;2022-08-02T09:17:11;27.90;93.90
23207;DHT22;11773;52.570;13.052;2022-08-02T09:19:39;27.80;94.80
23207;DHT22;11773;52.570;13.052;2022-08-02T09:22:12;27.80;94.30
23207;DHT22;11773;52.570;13.052;2022-08-02T09:24:45;28.00;94.40
23207;DHT22;11773;52.570;13.052;2022-08-02T09:27:19;27.80;94.60
23207;DHT22;11773;52.570;13.052;2022-08-02T09:29:52;28.10;94.70
23207;DHT22;11773;52.570;13.052;2022-08-02T09:32:24;28.30;94.10
23207;DHT22;11773;52.570;13.052;2022-08-02T09:34:55;28.40;94.90
23207;DHT22;11773;52.570;13.052;2022-08-02T09:37:29;28.40;94.00
23207;DHT22;11773;52.570;13.052;2022-08-02T09:39:59;28.20;93.80
23207;DHT22;11773;52.570;13.052;2022-08-02T09:42:30;28.40;94.40
23207;DHT22;11773;52.570;13.052;2022-08-02T09:45:01;28.10;93.40
23207;DHT22;11773;52.570;13.052;2022-08-02T09:47:30;27.70;94.20
23207;DHT22;11773;52.570;13.052;2022-08-02T09:50:02;27.50;94.50
23207;DHT22;11773;52.570;13.052;2022-08-02T09:52:32;27.70;94.50
23207;DHT22;11773;52.570;13.052;2022-08-02T09:55:06;27.40;94.20
23207;DHT22;11773;52.570;13.052;2022-08-02T09:57:36;27.80;94.40
23207;DHT22;11773;52.570;13.052;2022-08-02T10:00:07;28.00;94.50
23207;DHT22;11773;52.570;13.052;2022-08-02T10:03:03;28.00;94.20
23207;DHT22;11773;52.570;13.052;2022-08-02T10:05:30;27.80;94.20
23207;DHT22;11773;52.570;13.052;2022-08-02T10:08:03;28.10;94.10
23207;DHT22;11773;52.570;13.052;2022-08-02T10:10:33;27.40;94.40
23207;DHT22;11773;52.570;13.052;2022-08-02T10:13:02;27.70;94.60
23207;DHT22;11773;52.570;13.052;2022-08-02T10:15:33;28.00;94.80
23207;DHT22;11773;52.570;13.052;2022-08-02T10:18:07;28.30;94.20
23207;DHT22;11773;52.570;13.052;2022-08-02T10:20:42;28.10;94.50
23207;DHT22;11773;52.570;13.052;2022-08-02T10:23:13;28.10;94.60
23207;DHT22;11773;52.570;13.052;2022-08-02T10:25:45;27.60;94.10
23207;DHT22;11773;52.570;13.052;2022-08-02T10:28:16;27.80;95.00
23207;DHT22;11773;52.570;13.052;2022-08-02T10:30:48;28.10;94.80
23207;DHT22;11773;52.570;13.052;2022-08-02T10:33:18;27.50;94.20
23207;DHT22;11773;52.570;13.052;2022-08-02T10:35:49;27.30;94.80
23207;DHT22;11773;52.570;13.052;2022-08-02T10:38:22;27.60;95.00
23207;DHT22;11773;52.570;13.052;2022-08-02T10:40:54;27.80;94.40
23207;DHT22;11773;52.570;13.052;2022-08-02T10:46:30;28.10;94.80
23207;DHT22;11773;52.570;13.052;2022-08-02T10:49:10;28.30;93.80
23207;DHT22;11773;52.570;13.052;2022-08-02T10:54:39;28.60;94.40
23207;DHT22;11773;52.570;13.052;2022-08-02T10:57:24;28.10;93.40
23207;DHT22;11773;52.570;13.052;2022-08-02T11:00:09;28.10;93.70
23207;DHT22;11773;52.570;13.052;2022-08-02T11:02:46;28.50;94.10
23207;DHT22;11773;52.570;13.052;2022-08-02T11:05:29;28.40;94.30
23207;DHT22;11773;52.570;13.052;2022-08-02T11:08:19;28.40;93.90
23207;DHT22;11773;52.570;13.052;2022-08-02T11:10:57;28.00;93.40
23207;DHT22;11773;52.570;13.052;2022-08-02T11:13:28;28.10;93.90
23207;DHT22;11773;52.570;13.052;2022-08-02T11:16:00;28.50;93.60
23207;DHT22;11773;52.570;13.052;2022-08-02T11:21:30;28.20;94.00
23207;DHT22;11773;52.570;13.052;2022-08-02T11:24:29;28.20;93.90
23207;DHT22;11773;52.570;13.052;2022-08-02T11:26:57;28.20;94.70
23207;DHT22;11773;52.570;13.052;2022-08-02T11:29:33;28.10;92.70
23207;DHT22;11773;52.570;13.052;2022-08-02T11:32:07;27.90;93.00
23207;DHT22;11773;52.570;13.052;2022-08-02T11:34:39;27.90;92.90
23207;DHT22;11773;52.570;13.052;2022-08-02T11:37:10;28.20;93.40
23207;DHT22;11773;52.570;13.052;2022-08-02T11:39:40;28.10;92.20
23207;DHT22;11773;52.570;13.052;2022-08-02T11:42:12;28.00;93.10
23207;DHT22;11773;52.570;13.052;2022-08-02T11:44:42;28.40;92.70
23207;DHT22;11773;52.570;13.052;2022-08-02T11:47:13;28.40;93.80
23207;DHT22;11773;52.570;13.052;2022-08-02T11:49:43;28.60;92.80
23207;DHT22;11773;52.570;13.052;2022-08-02T11:52:13;28.80;93.30
23207;DHT22;11773;52.570;13.052;2022-08-02T11:54:43;28.60;92.60
23207;DHT22;11773;52.570;13.052;2022-08-02T11:57:20;28.60;92.60
23207;DHT22;11773;52.570;13.052;2022-08-02T11:59:52;29.00;94.10
23207;DHT22;11773;52.570;13.052;2022-08-02T12:02:25;29.10;92.50
23207;DHT22;11773;52.570;13.052;2022-08-02T12:05:01;29.40;93.30
23207;DHT22;11773;52.570;13.052;2022-08-02T12:07:37;29.00;92.00
23207;DHT22;11773;52.570;13.052;2022-08-02T12:10:12;28.90;91.20
23207;DHT22;11773;52.570;13.052;2022-08-02T12:12:54;28.70;90.90
23207;DHT22;11773;52.570;13.052;2022-08-02T12:15:30;28.80;91.60
23207;DHT22;11773;52.570;13.052;2022-08-02T12:18:10;28.60;92.60
23207;DHT22;11773;52.570;13.052;2022-08-02T12:20:59;28.90;92.70
23207;DHT22;11773;52.570;13.052;2022-08-02T12:23:29;29.00;92.40
23207;DHT22;11773;52.570;13.052;2022-08-02T12:26:05;28.90;92.40
23207;DHT22;11773;52.570;13.052;2022-08-02T12:28:39;28.80;91.80
23207;DHT22;11773;52.570;13.052;2022-08-02T12:31:11;28.80;91.50
23207;DHT22;11773;52.570;13.052;2022-08-02T12:33:49;28.70;91.60
23207;DHT22;11773;52.570;13.052;2022-08-02T12:36:22;28.60;91.70
23207;DHT22;11773;52.570;13.052;2022-08-02T12:47:46;28.60;91.80
23207;DHT22;11773;52.570;13.052;2022-08-02T12:50:29;28.50;92.50
23207;DHT22;11773;52.570;13.052;2022-08-02T12:53:04;28.60;93.00
23207;DHT22;11773;52.570;13.052;2022-08-02T12:55:55;28.80;93.20
23207;DHT22;11773;52.570;13.052;2022-08-02T12:58:28;28.90;92.70
23207;DHT22;11773;52.570;13.052;2022-08-02T13:01:00;28.80;91.60
23207;DHT22;11773;52.570;13.052;2022-08-02T13:03:29;28.70;92.10
23207;DHT22;11773;52.570;13.052;2022-08-02T13:06:01;28.90;92.80
23207;DHT22;11773;52.570;13.052;2022-08-02T13:08:32;28.70;91.90
23207;DHT22;11773;52.570;13.052;2022-08-02T13:11:02;29.10;91.50
23207;DHT22;11773;52.570;13.052;2022-08-02T13:13:31;29.00;92.10
23207;DHT22;11773;52.570;13.052;2022-08-02T13:16:01;29.10;91.90
23207;DHT22;11773;52.570;13.052;2022-08-02T13:18:31;28.90;92.00
23207;DHT22;11773;52.570;13.052;2022-08-02T13:21:01;29.00;92.00
23207;DHT22;11773;52.570;13.052;2022-08-02T13:23:34;29.00;90.70
23207;DHT22;11773;52.570;13.052;2022-08-02T13:26:05;29.00;91.30
23207;DHT22;11773;52.570;13.052;2022-08-02T13:28:35;29.10;91.50
23207;DHT22;11773;52.570;13.052;2022-08-02T13:31:06;29.00;90.50
23207;DHT22;11773;52.570;13.052;2022-08-02T13:33:37;29.00;91.70
23207;DHT22;11773;52.570;13.052;2022-08-02T13:36:07;28.90;91.20
23207;DHT22;11773;52.570;13.052;2022-08-02T13:38:36;29.00;90.70
23207;DHT22;11773;52.570;13.052;2022-08-02T13:41:06;29.00;90.60
23207;DHT22;11773;52.570;13.052;2022-08-02T13:43:36;29.20;92.10
23207;DHT22;11773;52.570;13.052;2022-08-02T13:46:08;29.00;91.30
23207;DHT22;11773;52.570;13.052;2022-08-02T13:48:37;29.00;92.00
23207;DHT22;11773;52.570;13.052;2022-08-02T13:51:07;29.00;92.10
23207;DHT22;11773;52.570;13.052;2022-08-02T13:53:40;29.00;90.40
23207;DHT22;11773;52.570;13.052;2022-08-02T13:56:09;29.10;90.40
23207;DHT22;11773;52.570;13.052;2022-08-02T13:58:39;29.30;91.40
23207;DHT22;11773;52.570;13.052;2022-08-02T14:01:08;29.50;92.30
23207;DHT22;11773;52.570;13.052;2022-08-02T14:03:38;29.20;91.80
23207;DHT22;11773;52.570;13.052;2022-08-02T14:06:09;28.90;91.60
23207;DHT22;11773;52.570;13.052;2022-08-02T14:08:39;29.20;91.70
23207;DHT22;11773;52.570;13.052;2022-08-02T14:11:08;29.30;91.70
23207;DHT22;11773;52.570;13.052;2022-08-02T14:13:37;29.30;91.60
23207;DHT22;11773;52.570;13.052;2022-08-02T14:16:07;29.40;91.20
23207;DHT22;11773;52.570;13.052;2022-08-02T14:18:37;29.60;92.50
23207;DHT22;11773;52.570;13.052;2022-08-02T14:21:06;29.40;92.00
23207;DHT22;11773;52.570;13.052;2022-08-02T14:23:36;29.30;90.70
23207;DHT22;11773;52.570;13.052;2022-08-02T14:26:07;29.30;91.30
23207;DHT22;11773;52.570;13.052;2022-08-02T14:28:38;29.50;91.40
23207;DHT22;11773;52.570;13.052;2022-08-02T14:31:08;29.60;92.90
23207;DHT22;11773;52.570;13.052;2022-08-02T14:33:38;29.60;93.10
23207;DHT22;11773;52.570;13.052;2022-08-02T14:36:07;29.60;92.40
23207;DHT22;11773;52.570;13.052;2022-08-02T14:38:37;29.30;90.80
23207;DHT22;11773;52.570;13.052;2022-08-02T14:41:06;29.50;91.50
23207;DHT22;11773;52.570;13.052;2022-08-02T14:43:36;29.60;91.50
23207;DHT22;11773;52.570;13.052;2022-08-02T14:46:23;29.60;91.10
23207;DHT22;11773;52.570;13.052;2022-08-02T14:48:54;29.30;90.80
23207;DHT22;11773;52.570;13.052;2022-08-02T14:51:23;29.20;90.50
23207;DHT22;11773;52.570;13.052;2022-08-02T14:53:53;29.30;91.50
23207;DHT22;11773;52.570;13.052;2022-08-02T14:56:24;29.40;91.20
23207;DHT22;11773;52.570;13.052;2022-08-02T14:58:54;29.40;91.40
23207;DHT22;11773;52.570;13.052;2022-08-02T15:01:24;29.60;91.20
23207;DHT22;11773;52.570;13.052;2022-08-02T15:03:53;29.40;92.00
23207;DHT22;11773;52.570;13.052;2022-08-02T15:06:23;29.30;90.90
23207;DHT22;11773;52.570;13.052;2022-08-02T15:08:54;29.30;91.80
23207;DHT22;11773;52.570;13.052;2022-08-02T15:11:24;29.40;91.50
23207;DHT22;11773;52.570;13.052;2022-08-02T15:13:54;29.50;90.20
23207;DHT22;11773;52.570;13.052;2022-08-02T15:16:26;29.30;91.10
23207;DHT22;11773;52.570;13.052;2022-08-02T15:18:59;29.40;92.20
23207;DHT22;11773;52.570;13.052;2022-08-02T15:21:33;29.40;93.40
23207;DHT22;11773;52.570;13.052;2022-08-02T15:24:04;29.30;91.10
23207;DHT22;11773;52.570;13.052;2022-08-02T15:26:34;29.30;90.80
23207;DHT22;11773;52.570;13.052;2022-08-02T15:29:03;29.40;91.50
23207;DHT22;11773;52.570;13.052;2022-08-02T15:31:33;29.30;91.80
23207;DHT22;11773;52.570;13.052;2022-08-02T15:34:04;29.50;91.30
23207;DHT22;11773;52.570;13.052;2022-08-02T15:36:34;29.30;91.70
23207;DHT22;11773;52.570;13.052;2022-08-02T15:39:03;29.50;91.60
23207;DHT22;11773;52.570;13.052;2022-08-02T15:41:33;29.50;92.60
23207;DHT22;11773;52.570;13.052;2022-08-02T15:44:03;29.30;91.60
23207;DHT22;11773;52.570;13.052;2022-08-02T15:46:36;29.50;92.70
23207;DHT22;11773;52.570;13.052;2022-08-02T15:49:06;29.30;90.70
23207;DHT22;11773;52.570;13.052;2022-08-02T15:51:35;29.40;91.30
23207;DHT22;11773;52.570;13.052;2022-08-02T15:54:05;29.50;90.90
23207;DHT22;11773;52.570;13.052;2022-08-02T15:56:34;29.30;90.00
23207;DHT22;11773;52.570;13.052;2022-08-02T15:59:04;29.40;90.70
23207;DHT22;11773;52.570;13.052;2022-08-02T16:01:33;29.40;90.60
23207;DHT22;11773;52.570;13.052;2022-08-02T16:04:05;29.40;90.90
23207;DHT22;11773;52.570;13.052;2022-08-02T16:06:35;29.30;90.90
23207;DHT22;11773;52.570;13.052;2022-08-02T16:09:05;29.30;91.10